createdAt,value
2019-01-22T00:01:43.447Z,98561.91
2019-01-22T00:04:19.235Z,98564.78
2019-01-22T00:06:54.738Z,98555.31
2019-01-22T00:09:28.998Z,98557.69
2019-01-22T00:12:04.121Z,98563.44
2019-01-22T00:14:39.709Z,98553.86
2019-01-22T00:17:13.840Z,98549.38
2019-01-22T00:19:47.635Z,98551.91
2019-01-22T00:22:21.942Z,98551.32
2019-01-22T00:24:57.658Z,98552.01
2019-01-22T00:27:31.852Z,98550.16
2019-01-22T00:30:07.679Z,98538.52
2019-01-22T00:32:43.360Z,98546.77
2019-01-22T00:35:18.877Z,98537.12
2019-01-22T00:37:52.739Z,98541.77
2019-01-22T00:40:26.395Z,98527.72
2019-01-22T00:43:01.383Z,98541.11
2019-01-22T00:45:36.055Z,98537.20
2019-01-22T00:48:11.606Z,98540.04
2019-01-22T00:50:45.993Z,98533.52
2019-01-22T00:53:21.529Z,98530.89
2019-01-22T00:55:58.996Z,98521.81
2019-01-22T00:58:33.107Z,98528.31
2019-01-22T01:01:08.651Z,98522.66
2019-01-22T01:03:43.701Z,98519.93
2019-01-22T01:06:18.006Z,98526.98
2019-01-22T01:08:52.016Z,98531.98
2019-01-22T01:11:25.794Z,98536.31
2019-01-22T01:13:59.547Z,98543.91
2019-01-22T01:16:33.466Z,98544.27
2019-01-22T01:19:26.404Z,98549.39
2019-01-22T01:22:00.496Z,98551.55
2019-01-22T01:24:34.822Z,98558.02
2019-01-22T01:27:08.960Z,98565.30
2019-01-22T01:29:42.888Z,98572.88
2019-01-22T01:32:16.949Z,98587.41
2019-01-22T01:34:51.312Z,98607.34
2019-01-22T01:37:25.316Z,98617.21
2019-01-22T01:39:59.400Z,98634.21
2019-01-22T01:42:33.343Z,98640.22
2019-01-22T01:45:10.305Z,98639.37
2019-01-22T01:47:44.575Z,98643.63
2019-01-22T01:50:19.476Z,98654.28
2019-01-22T01:52:53.419Z,98656.16
2019-01-22T01:55:27.707Z,98652.97
2019-01-22T01:58:01.951Z,98652.59
2019-01-22T02:00:37.129Z,98657.94
2019-01-22T02:03:13.808Z,98661.97
2019-01-22T02:05:47.634Z,98652.07
2019-01-22T02:08:22.933Z,98650.59
2019-01-22T02:10:58.151Z,98652.41
2019-01-22T02:13:53.320Z,98652.61
2019-01-22T02:16:59.241Z,98651.34
2019-01-22T02:19:42.094Z,98646.50
2019-01-22T02:22:36.294Z,98637.35
2019-01-22T02:25:15.010Z,98642.09
2019-01-22T02:27:56.781Z,98636.73
2019-01-22T02:30:45.079Z,98631.84
2019-01-22T02:33:48.639Z,98632.30
2019-01-22T02:36:39.539Z,98632.19
2019-01-22T02:39:24.619Z,98621.87
2019-01-22T02:42:04.519Z,98611.49
2019-01-22T02:45:20.256Z,98614.00
2019-01-22T02:48:05.630Z,98615.80
2019-01-22T02:51:19.526Z,98605.59
2019-01-22T02:53:59.055Z,98604.22
2019-01-22T02:56:53.461Z,98606.48
2019-01-22T02:59:50.368Z,98602.67
2019-01-22T03:02:33.988Z,98603.59
2019-01-22T03:05:30.834Z,98594.35
2019-01-22T03:08:47.976Z,98594.23
2019-01-22T03:11:33.110Z,98588.22
2019-01-22T03:14:24.207Z,98586.23
2019-01-22T03:17:05.965Z,98583.69
2019-01-22T03:19:45.096Z,98577.82
2019-01-22T03:22:36.258Z,98571.73
2019-01-22T03:25:24.365Z,98578.69
2019-01-22T03:28:03.456Z,98580.66
2019-01-22T03:30:58.922Z,98580.34
2019-01-22T03:33:44.405Z,98583.44
2019-01-22T03:36:54.405Z,98568.87
2019-01-22T03:43:08.451Z,98576.50
2019-01-22T03:45:47.204Z,98571.77
2019-01-22T03:49:18.259Z,98567.46
2019-01-22T03:52:10.400Z,98572.28
2019-01-22T03:55:11.737Z,98555.44
2019-01-22T03:57:46.615Z,98555.73
2019-01-22T04:00:24.723Z,98553.38
2019-01-22T04:02:59.761Z,98556.08
2019-01-22T04:05:35.423Z,98554.22
2019-01-22T04:08:13.019Z,98548.81
2019-01-22T04:10:47.780Z,98547.03
2019-01-22T04:13:30.362Z,98540.83
2019-01-22T04:16:07.611Z,98542.11
2019-01-22T04:18:42.316Z,98530.29
2019-01-22T04:21:18.654Z,98534.47
2019-01-22T04:24:01.778Z,98533.80
2019-01-22T04:26:53.226Z,98521.89
2019-01-22T04:29:59.556Z,98530.25
2019-01-22T04:33:07.734Z,98522.94
2019-01-22T04:36:04.823Z,98517.14
2019-01-22T04:38:41.447Z,98518.76
2019-01-22T04:41:24.012Z,98511.67
2019-01-22T04:44:24.574Z,98510.38
2019-01-22T04:47:06.601Z,98508.69
2019-01-22T04:50:23.495Z,98515.14
2019-01-22T04:53:21.603Z,98508.59
2019-01-22T04:56:26.629Z,98506.15
2019-01-22T04:59:07.404Z,98519.75
2019-01-22T05:01:59.273Z,98520.52
2019-01-22T05:04:39.366Z,98524.77
2019-01-22T05:07:51.555Z,98533.77
2019-01-22T05:10:43.162Z,98538.84
2019-01-22T05:13:25.793Z,98544.47
2019-01-22T05:16:08.334Z,98544.67
2019-01-22T05:19:03.671Z,98552.23
2019-01-22T05:21:49.556Z,98548.23
2019-01-22T05:24:58.214Z,98545.48
2019-01-22T05:27:36.463Z,98545.95
2019-01-22T05:30:37.584Z,98550.68
2019-01-22T05:33:23.976Z,98544.90
2019-01-22T05:36:09.316Z,98541.62
2019-01-22T05:39:17.438Z,98539.47
2019-01-22T05:42:15.727Z,98537.50
2019-01-22T05:44:52.053Z,98546.98
2019-01-22T05:47:51.414Z,98554.50
2019-01-22T05:53:47.711Z,98551.41
2019-01-22T05:56:26.886Z,98563.20
2019-01-22T05:59:40.243Z,98566.14
2019-01-22T06:02:16.064Z,98569.91
2019-01-22T06:05:11.670Z,98573.33
2019-01-22T06:08:06.493Z,98576.16
2019-01-22T06:10:59.325Z,98578.67
2019-01-22T06:13:51.159Z,98585.32
2019-01-22T06:17:06.557Z,98584.78
2019-01-22T06:20:01.948Z,98588.67
2019-01-22T06:22:59.870Z,98587.80
2019-01-22T06:26:08.727Z,98587.80
2019-01-22T06:29:04.243Z,98605.34
2019-01-22T06:31:43.101Z,98608.72
2019-01-22T06:38:11.167Z,98612.58
2019-01-22T06:41:25.009Z,98613.46
2019-01-22T06:44:26.411Z,98613.87
2019-01-22T06:47:16.577Z,98623.95
2019-01-22T06:50:28.593Z,98629.28
2019-01-22T06:53:20.894Z,98635.86
2019-01-22T06:56:36.998Z,98633.81
2019-01-22T06:59:21.779Z,98641.42
2019-01-22T07:02:13.154Z,98642.24
2019-01-22T07:04:58.471Z,98637.25
2019-01-22T07:07:52.563Z,98634.38
2019-01-22T07:10:34.429Z,98646.64
2019-01-22T07:13:22.123Z,98643.38
2019-01-22T07:16:31.756Z,98644.66
2019-01-22T07:19:15.249Z,98645.41
2019-01-22T07:21:56.688Z,98650.02
2019-01-22T07:24:46.708Z,98657.77
2019-01-22T07:27:42.822Z,98661.20
2019-01-22T07:30:29.688Z,98655.02
2019-01-22T07:33:30.294Z,98656.35
2019-01-22T07:36:14.171Z,98651.48
2019-01-22T07:38:59.525Z,98662.27
2019-01-22T07:41:58.619Z,98665.20
2019-01-22T07:44:35.703Z,98653.14
2019-01-22T07:47:29.608Z,98662.80
2019-01-22T07:50:22.191Z,98663.02
2019-01-22T07:53:01.885Z,98670.01
2019-01-22T07:55:53.356Z,98675.37
2019-01-22T07:58:39.015Z,98676.91
2019-01-22T08:01:19.273Z,98679.29
2019-01-22T08:04:19.363Z,98679.08
2019-01-22T08:07:23.584Z,98688.67
2019-01-22T08:10:23.007Z,98692.34
2019-01-22T08:12:59.453Z,98688.98
2019-01-22T08:15:47.734Z,98691.14
2019-01-22T08:18:56.968Z,98688.43
2019-01-22T08:22:05.188Z,98694.34
2019-01-22T08:24:50.308Z,98693.47
2019-01-22T08:27:55.072Z,98694.64
2019-01-22T08:30:46.100Z,98695.84
2019-01-22T08:33:28.582Z,98698.42
2019-01-22T08:36:10.781Z,98701.64
2019-01-22T08:39:06.018Z,98699.09
2019-01-22T08:42:00.995Z,98701.27
2019-01-22T08:45:03.094Z,98705.80
2019-01-22T08:48:28.480Z,98703.48
2019-01-22T08:54:00.017Z,98700.13
2019-01-22T08:56:58.020Z,98699.13
2019-01-22T08:59:53.516Z,98709.17
2019-01-22T09:03:01.646Z,98709.02
2019-01-22T09:06:19.368Z,98710.65
2019-01-22T09:09:15.385Z,98711.11
2019-01-22T09:12:12.437Z,98714.09
2019-01-22T09:14:54.783Z,98719.25
2019-01-22T09:17:42.931Z,98722.80
2019-01-22T09:20:39.094Z,98724.88
2019-01-22T09:23:59.197Z,98727.86
2019-01-22T09:26:52.949Z,98727.95
2019-01-22T09:29:35.592Z,98735.00
2019-01-22T09:32:35.127Z,98738.89
2019-01-22T09:35:44.382Z,98738.47
2019-01-22T09:38:21.735Z,98741.23
2019-01-22T09:40:56.147Z,98748.88
2019-01-22T09:43:34.338Z,98752.14
2019-01-22T09:46:10.159Z,98750.94
2019-01-22T09:48:45.244Z,98750.75
2019-01-22T09:51:20.635Z,98754.56
2019-01-22T09:53:54.787Z,98759.28
2019-01-22T09:56:36.033Z,98758.87
2019-01-22T10:01:50.318Z,98763.72
2019-01-22T10:04:27.804Z,98766.00
2019-01-22T10:07:05.932Z,98765.17
2019-01-22T10:09:41.916Z,98763.12
2019-01-22T10:12:28.793Z,98761.36
2019-01-22T10:15:17.427Z,98768.70
2019-01-22T10:17:49.673Z,98771.88
2019-01-22T10:20:27.282Z,98771.05
2019-01-22T10:23:04.490Z,98773.84
2019-01-22T10:25:39.396Z,98776.67
2019-01-22T10:28:16.163Z,98775.44
2019-01-22T10:30:57.104Z,98777.09
2019-01-22T10:33:33.696Z,98774.88
2019-01-22T10:36:11.855Z,98775.95
2019-01-22T10:38:48.879Z,98779.75
2019-01-22T10:41:30.327Z,98775.91
2019-01-22T10:44:14.331Z,98778.55
2019-01-22T10:46:52.198Z,98787.26
2019-01-22T10:49:28.258Z,98784.22
2019-01-22T10:52:08.909Z,98784.22
2019-01-22T10:54:51.500Z,98790.71
2019-01-22T10:57:29.400Z,98786.33
2019-01-22T11:00:08.167Z,98783.70
2019-01-22T11:02:46.202Z,98786.55
2019-01-22T11:05:26.245Z,98789.23
2019-01-22T11:08:06.134Z,98791.17
2019-01-22T11:10:43.802Z,98796.45
2019-01-22T11:13:38.615Z,98798.03
2019-01-22T11:16:15.858Z,98796.98
2019-01-22T11:18:54.788Z,98799.64
2019-01-22T11:21:31.417Z,98802.48
2019-01-22T11:24:30.207Z,98800.24
2019-01-22T11:27:00.733Z,98800.09
2019-01-22T11:29:40.103Z,98797.69
2019-01-22T11:32:18.277Z,98794.41
2019-01-22T11:34:54.697Z,98795.25
2019-01-22T11:37:30.386Z,98790.26
2019-01-22T11:40:06.178Z,98796.89
2019-01-22T11:42:42.954Z,98794.94
2019-01-22T11:45:24.788Z,98799.32
2019-01-22T11:47:59.348Z,98802.27
2019-01-22T11:50:35.699Z,98801.34
2019-01-22T11:53:11.041Z,98800.66
2019-01-22T11:55:50.568Z,98802.42
2019-01-22T11:58:24.606Z,98805.55
2019-01-22T12:01:04.983Z,98803.19
2019-01-22T12:03:40.388Z,98808.75
2019-01-22T12:06:17.965Z,98809.00
2019-01-22T12:09:13.665Z,98800.09
2019-01-22T12:11:51.515Z,98809.41
2019-01-22T12:14:26.981Z,98804.42
2019-01-22T12:17:07.111Z,98807.77
2019-01-22T12:19:53.242Z,98805.72
2019-01-22T12:22:28.820Z,98804.47
2019-01-22T12:25:04.724Z,98798.75
2019-01-22T12:27:40.901Z,98802.27
2019-01-22T12:30:32.951Z,98807.41
2019-01-22T12:33:11.775Z,98802.58
2019-01-22T12:35:49.927Z,98801.48
2019-01-22T12:38:25.747Z,98794.69
2019-01-22T12:41:01.748Z,98796.34
2019-01-22T12:43:37.566Z,98801.63
2019-01-22T12:46:12.973Z,98804.00
2019-01-22T12:48:55.555Z,98802.00
2019-01-22T12:51:31.935Z,98798.90
2019-01-22T12:54:07.450Z,98805.72
2019-01-22T12:56:53.288Z,98808.61
2019-01-22T12:59:31.279Z,98806.73
2019-01-22T13:02:06.639Z,98804.92
2019-01-22T13:04:43.280Z,98798.27
2019-01-22T13:07:19.273Z,98804.14
2019-01-22T13:09:58.714Z,98800.20
2019-01-22T13:12:38.840Z,98800.81
2019-01-22T13:15:15.475Z,98795.41
2019-01-22T13:17:52.271Z,98789.63
2019-01-22T13:20:27.430Z,98795.50
2019-01-22T13:23:03.392Z,98788.95
2019-01-22T13:25:45.315Z,98789.58
2019-01-22T13:28:21.562Z,98785.56
2019-01-22T13:31:00.436Z,98785.05
2019-01-22T13:33:37.157Z,98781.75
2019-01-22T13:36:12.737Z,98789.45
2019-01-22T13:38:50.993Z,98787.66
2019-01-22T13:41:30.886Z,98782.76
2019-01-22T13:44:10.679Z,98782.76
2019-01-22T13:46:45.757Z,98775.77
2019-01-22T13:49:21.451Z,98770.48
2019-01-22T13:51:57.242Z,98777.50
2019-01-22T13:54:37.289Z,98778.64
2019-01-22T13:57:14.749Z,98783.28
2019-01-22T13:59:50.435Z,98773.44
2019-01-22T14:02:28.543Z,98767.91
2019-01-22T14:05:08.593Z,98759.79
2019-01-22T14:07:51.447Z,98766.34
2019-01-22T14:10:33.210Z,98766.23
2019-01-22T14:13:11.719Z,98764.66
2019-01-22T14:15:50.743Z,98766.14
2019-01-22T14:18:25.632Z,98761.78
2019-01-22T14:21:16.026Z,98772.58
2019-01-22T14:23:51.601Z,98770.48
2019-01-22T14:26:31.550Z,98764.36
2019-01-22T14:29:09.784Z,98768.17
2019-01-22T14:31:48.181Z,98768.89
2019-01-22T14:34:24.283Z,98773.02
2019-01-22T14:37:00.518Z,98774.30
2019-01-22T14:39:38.195Z,98772.80
2019-01-22T14:42:13.247Z,98780.78
2019-01-22T14:44:51.728Z,98788.80
2019-01-22T14:47:26.695Z,98796.39
2019-01-22T14:50:04.800Z,98790.45
2019-01-22T14:52:40.500Z,98785.30
2019-01-22T14:55:15.918Z,98784.48
2019-01-22T14:57:57.209Z,98785.12
2019-01-22T15:00:32.969Z,98779.98
2019-01-22T15:03:13.562Z,98784.41
2019-01-22T15:05:48.031Z,98785.81
2019-01-22T15:08:22.728Z,98789.75
2019-01-22T15:10:57.685Z,98790.62
2019-01-22T15:13:34.419Z,98796.80
2019-01-22T15:16:11.256Z,98794.11
2019-01-22T15:18:45.644Z,98794.11
2019-01-22T15:21:38.461Z,98794.63
2019-01-22T15:24:14.720Z,98800.75
2019-01-22T15:26:49.802Z,98794.05
2019-01-22T15:29:24.509Z,98798.48
2019-01-22T15:31:59.812Z,98796.44
2019-01-22T15:34:37.688Z,98796.20
2019-01-22T15:37:13.199Z,98806.03
2019-01-22T15:39:56.210Z,98802.13
2019-01-22T15:42:29.716Z,98801.92
2019-01-22T15:45:12.047Z,98800.77
2019-01-22T15:47:46.505Z,98809.40
2019-01-22T15:50:22.747Z,98806.96
2019-01-22T15:52:56.935Z,98815.81
2019-01-22T15:55:33.032Z,98811.75
2019-01-22T15:58:07.091Z,98815.95
2019-01-22T16:00:41.740Z,98813.36
2019-01-22T16:03:15.543Z,98813.58
2019-01-22T16:05:49.276Z,98817.17
2019-01-22T16:08:26.150Z,98817.28
2019-01-22T16:11:00.650Z,98823.25
2019-01-22T16:13:37.627Z,98825.69
2019-01-22T16:16:14.347Z,98833.09
2019-01-22T16:18:51.757Z,98831.53
2019-01-22T16:21:27.934Z,98842.14
2019-01-22T16:24:07.618Z,98839.99
2019-01-22T16:26:53.383Z,98841.84
2019-01-22T16:29:24.800Z,98839.05
2019-01-22T16:32:00.028Z,98843.48
2019-01-22T16:34:34.972Z,98857.35
2019-01-22T16:37:08.902Z,98859.82
2019-01-22T16:39:47.137Z,98858.17
2019-01-22T16:42:22.720Z,98863.59
2019-01-22T16:44:56.534Z,98862.77
2019-01-22T16:47:34.968Z,98857.94
2019-01-22T16:50:19.680Z,98869.11
2019-01-22T16:53:01.767Z,98874.25
2019-01-22T16:55:52.172Z,98872.06
2019-01-22T16:58:33.543Z,98885.73
2019-01-22T17:01:08.981Z,98880.84
2019-01-22T17:03:44.098Z,98884.05
2019-01-22T17:06:18.031Z,98886.77
2019-01-22T17:08:52.562Z,98892.77
2019-01-22T17:11:35.937Z,98901.15
2019-01-22T17:14:28.540Z,98891.80
2019-01-22T17:17:06.792Z,98891.93
2019-01-22T17:19:41.580Z,98906.13
2019-01-22T17:22:18.131Z,98910.75
2019-01-22T17:25:05.109Z,98910.34
2019-01-22T17:27:41.625Z,98918.75
2019-01-22T17:30:17.826Z,98920.31
2019-01-22T17:32:55.777Z,98926.45
2019-01-22T17:35:39.803Z,98924.31
2019-01-22T17:38:16.979Z,98935.06
2019-01-22T17:40:50.756Z,98942.23
2019-01-22T17:43:26.616Z,98943.33
2019-01-22T17:46:03.797Z,98947.05
2019-01-22T17:48:40.599Z,98958.16
2019-01-22T17:51:16.897Z,98961.76
2019-01-22T17:53:54.685Z,98965.33
2019-01-22T17:56:33.455Z,98962.80
2019-01-22T17:59:09.049Z,98974.97
2019-01-22T18:01:50.576Z,98981.02
2019-01-22T18:04:31.124Z,98979.56
2019-01-22T18:07:05.981Z,98983.64
2019-01-22T18:09:43.831Z,98987.30
2019-01-22T18:12:21.224Z,98993.00
2019-01-22T18:17:56.594Z,99006.19
2019-01-22T18:20:40.033Z,99008.75
2019-01-22T18:23:17.576Z,99009.95
2019-01-22T18:25:54.493Z,99017.80
2019-01-22T18:28:33.208Z,99021.14
2019-01-22T18:31:07.816Z,99027.47
2019-01-22T18:33:41.772Z,99034.86
2019-01-22T18:36:20.522Z,99029.88
2019-01-22T18:38:56.171Z,99031.71
2019-01-22T18:41:30.991Z,99033.79
2019-01-22T18:44:13.630Z,99030.52
2019-01-22T18:46:48.045Z,99032.22
2019-01-22T18:49:23.511Z,99034.84
2019-01-22T18:51:57.954Z,99032.29
2019-01-22T18:54:31.677Z,99030.88
2019-01-22T18:57:13.471Z,99041.27
2019-01-22T19:00:05.361Z,99039.80
2019-01-22T19:02:43.522Z,99044.16
2019-01-22T19:05:27.442Z,99045.27
2019-01-22T19:08:05.880Z,99048.67
2019-01-22T19:10:43.704Z,99044.69
2019-01-22T19:13:26.421Z,99056.13
2019-01-22T19:16:00.175Z,99053.09
2019-01-22T19:18:33.939Z,99060.00
2019-01-22T19:21:11.805Z,99058.32
2019-01-22T19:23:46.397Z,99059.91
2019-01-22T19:26:20.335Z,99054.59
2019-01-22T19:28:54.919Z,99067.30
2019-01-22T19:31:32.750Z,99063.30
2019-01-22T19:34:07.808Z,99058.58
2019-01-22T19:36:42.609Z,99060.66
2019-01-22T19:39:18.023Z,99069.88
2019-01-22T19:41:53.047Z,99065.73
2019-01-22T19:44:27.681Z,99068.78
2019-01-22T19:47:02.961Z,99067.56
2019-01-22T19:49:38.658Z,99066.06
2019-01-22T19:52:11.973Z,99059.23
2019-01-22T19:54:46.354Z,99070.20
2019-01-22T19:57:20.132Z,99082.26
2019-01-22T19:59:54.766Z,99081.81
2019-01-22T20:02:31.562Z,99095.33
2019-01-22T20:05:06.234Z,99090.78
2019-01-22T20:07:41.462Z,99098.91
2019-01-22T20:10:17.210Z,99103.07
2019-01-22T20:12:51.649Z,99108.38
2019-01-22T20:15:27.580Z,99112.03
2019-01-22T20:18:02.667Z,99111.97
2019-01-22T20:20:36.723Z,99120.78
2019-01-22T20:23:11.912Z,99124.75
2019-01-22T20:25:48.504Z,99124.75
2019-01-22T20:28:22.604Z,99132.63
2019-01-22T20:30:56.356Z,99131.09
2019-01-22T20:33:30.091Z,99128.91
2019-01-22T20:36:03.408Z,99123.22
2019-01-22T20:38:37.359Z,99124.27
2019-01-22T20:41:11.282Z,99123.98
2019-01-22T20:43:46.063Z,99127.38
2019-01-22T20:46:19.677Z,99128.47
2019-01-22T20:48:53.280Z,99132.63
2019-01-22T20:51:27.298Z,99130.89
2019-01-22T20:54:00.620Z,99133.38
2019-01-22T20:56:34.183Z,99134.88
2019-01-22T20:59:07.318Z,99141.87
2019-01-22T21:01:41.281Z,99135.95
2019-01-22T21:04:14.963Z,99146.78
2019-01-22T21:06:50.891Z,99144.79
2019-01-22T21:09:24.854Z,99149.70
2019-01-22T21:11:58.554Z,99160.94
2019-01-22T21:14:32.449Z,99163.84
2019-01-22T21:17:06.024Z,99162.97
2019-01-22T21:19:39.771Z,99164.95
2019-01-22T21:22:13.313Z,99174.45
2019-01-22T21:24:46.627Z,99171.95
2019-01-22T21:27:20.169Z,99180.88
2019-01-22T21:29:55.241Z,99186.36
2019-01-22T21:32:28.649Z,99192.39
2019-01-22T21:35:03.725Z,99192.53
2019-01-22T21:37:37.434Z,99199.52
2019-01-22T21:40:13.410Z,99202.34
2019-01-22T21:42:47.065Z,99201.28
2019-01-22T21:48:31.613Z,99213.12
2019-01-22T21:51:05.542Z,99223.73
2019-01-22T21:53:59.063Z,99231.67
2019-01-22T21:56:33.903Z,99234.20
2019-01-22T21:59:08.569Z,99230.09
2019-01-22T22:01:43.052Z,99232.08
2019-01-22T22:04:35.845Z,99231.89
2019-01-22T22:07:09.456Z,99240.36
2019-01-22T22:09:43.675Z,99241.98
2019-01-22T22:12:18.468Z,99258.14
2019-01-22T22:14:52.135Z,99257.34
2019-01-22T22:17:25.695Z,99259.03
2019-01-22T22:20:00.258Z,99265.80
2019-01-22T22:22:33.760Z,99277.42
2019-01-22T22:25:10.316Z,99280.21
2019-01-22T22:27:44.048Z,99289.97
2019-01-22T22:30:37.243Z,99294.66
2019-01-22T22:33:12.878Z,99302.31
2019-01-22T22:35:47.342Z,99301.80
2019-01-22T22:38:24.174Z,99305.41
2019-01-22T22:40:58.488Z,99314.05
2019-01-22T22:43:32.737Z,99314.56
2019-01-22T22:46:07.965Z,99316.54
2019-01-22T22:48:43.414Z,99315.22
2019-01-22T22:51:20.320Z,99323.84
2019-01-22T22:53:54.404Z,99326.14
2019-01-22T22:56:29.485Z,99321.19
2019-01-22T22:59:04.086Z,99331.30
2019-01-22T23:01:40.972Z,99331.78
2019-01-22T23:04:14.664Z,99342.06
2019-01-22T23:06:48.628Z,99348.72
2019-01-22T23:09:22.856Z,99349.71
2019-01-22T23:11:57.977Z,99355.31
2019-01-22T23:14:32.442Z,99365.95
2019-01-22T23:17:07.075Z,99374.88
2019-01-22T23:19:41.110Z,99384.00
2019-01-22T23:22:15.874Z,99382.34
2019-01-22T23:24:49.944Z,99383.16
2019-01-22T23:27:24.094Z,99385.30
2019-01-22T23:29:59.914Z,99392.26
2019-01-22T23:32:39.713Z,99394.75
2019-01-22T23:35:13.873Z,99402.05
2019-01-22T23:37:48.637Z,99410.35
2019-01-22T23:40:23.690Z,99418.11
2019-01-22T23:43:07.560Z,99415.48
2019-01-22T23:45:42.566Z,99414.98
2019-01-22T23:48:16.731Z,99413.00
2019-01-22T23:50:54.417Z,99413.52
2019-01-22T23:53:28.515Z,99420.80
2019-01-22T23:56:02.770Z,99420.78
2019-01-22T23:58:36.566Z,99427.24
